createdAt,value
2022-12-20T00:01:22.526Z,85.18
2022-12-20T00:03:51.001Z,85.11
2022-12-20T00:06:17.600Z,84.79
2022-12-20T00:08:45.223Z,84.95
2022-12-20T00:11:11.850Z,85.08
2022-12-20T00:13:39.816Z,85.18
2022-12-20T00:16:07.538Z,84.63
2022-12-20T00:18:34.610Z,84.41
2022-12-20T00:21:02.538Z,84.59
2022-12-20T00:23:31.811Z,84.40
2022-12-20T00:26:03.414Z,84.53
2022-12-20T00:28:30.774Z,84.08
2022-12-20T00:30:58.769Z,83.92
2022-12-20T00:33:25.556Z,83.84
2022-12-20T00:35:52.272Z,83.92
2022-12-20T00:38:18.730Z,83.67
2022-12-20T00:40:45.372Z,83.68
2022-12-20T00:43:11.884Z,83.59
2022-12-20T00:45:38.397Z,83.73
2022-12-20T00:48:05.729Z,83.11
2022-12-20T00:50:32.185Z,82.93
2022-12-20T00:52:58.610Z,83.07
2022-12-20T00:55:25.050Z,82.45
2022-12-20T00:57:51.510Z,82.74
2022-12-20T01:00:18.401Z,82.97
2022-12-20T01:02:44.899Z,82.91
2022-12-20T01:05:11.466Z,83.51
2022-12-20T01:07:37.898Z,83.37
2022-12-20T01:10:04.591Z,83.24
2022-12-20T01:12:31.036Z,83.98
2022-12-20T01:14:57.510Z,83.46
2022-12-20T01:17:23.983Z,84.16
2022-12-20T01:19:50.444Z,84.65
2022-12-20T01:22:16.875Z,86.24
2022-12-20T01:24:43.383Z,87.02
2022-12-20T01:27:09.863Z,88.22
2022-12-20T01:29:36.326Z,89.26
2022-12-20T01:32:02.792Z,89.88
2022-12-20T01:34:29.385Z,90.93
2022-12-20T01:36:55.887Z,91.86
2022-12-20T01:39:22.310Z,93.22
2022-12-20T01:41:48.772Z,93.75
2022-12-20T01:44:18.267Z,94.59
2022-12-20T01:46:49.601Z,95.67
2022-12-20T01:49:21.719Z,96.33
2022-12-20T01:51:53.028Z,97.00
2022-12-20T01:54:25.383Z,97.18
2022-12-20T01:56:58.580Z,97.61
2022-12-20T01:59:26.352Z,98.38
2022-12-20T02:01:53.027Z,98.60
2022-12-20T02:04:19.498Z,98.94
2022-12-20T02:06:45.974Z,99.35
2022-12-20T02:09:12.523Z,99.65
2022-12-20T02:12:14.898Z,99.95
2022-12-20T02:15:19.520Z,100.00
2022-12-20T02:18:24.070Z,100.00
2022-12-20T02:21:15.534Z,100.00
2022-12-20T02:24:26.959Z,100.00
2022-12-20T02:27:04.931Z,100.00
2022-12-20T02:29:31.309Z,100.00
2022-12-20T02:32:20.353Z,100.00
2022-12-20T02:34:47.200Z,100.00
2022-12-20T02:37:13.666Z,100.00
2022-12-20T02:39:42.261Z,100.00
2022-12-20T02:42:15.264Z,100.00
2022-12-20T02:45:05.744Z,100.00
2022-12-20T02:47:56.235Z,100.00
2022-12-20T02:50:28.426Z,100.00
2022-12-20T02:52:55.523Z,100.00
2022-12-20T02:55:31.492Z,100.00
2022-12-20T02:58:10.173Z,100.00
2022-12-20T03:00:43.301Z,100.00
2022-12-20T03:03:22.860Z,100.00
2022-12-20T03:05:52.124Z,100.00
2022-12-20T03:08:19.475Z,100.00
2022-12-20T03:10:46.153Z,100.00
2022-12-20T03:13:12.910Z,100.00
2022-12-20T03:15:39.398Z,100.00
2022-12-20T03:18:05.968Z,100.00
2022-12-20T03:20:32.787Z,100.00
2022-12-20T03:22:59.422Z,100.00
2022-12-20T03:25:26.081Z,100.00
2022-12-20T03:27:52.571Z,100.00
2022-12-20T03:30:19.238Z,100.00
2022-12-20T03:32:45.654Z,100.00
2022-12-20T03:35:12.420Z,100.00
2022-12-20T03:37:38.895Z,100.00
2022-12-20T03:40:06.131Z,100.00
2022-12-20T03:42:32.912Z,100.00
2022-12-20T03:44:59.460Z,100.00
2022-12-20T03:47:26.507Z,100.00
2022-12-20T03:49:53.055Z,100.00
2022-12-20T03:52:19.483Z,100.00
2022-12-20T03:54:45.908Z,100.00
2022-12-20T03:57:12.370Z,100.00
2022-12-20T03:59:38.897Z,100.00
2022-12-20T04:02:06.002Z,100.00
2022-12-20T04:04:32.710Z,100.00
2022-12-20T04:06:59.158Z,100.00
2022-12-20T04:09:25.599Z,100.00
2022-12-20T04:11:52.025Z,100.00
2022-12-20T04:14:18.488Z,100.00
2022-12-20T04:16:44.994Z,100.00
2022-12-20T04:19:12.081Z,99.93
2022-12-20T04:21:38.710Z,99.86
2022-12-20T04:24:06.444Z,99.80
2022-12-20T04:26:33.149Z,99.63
2022-12-20T04:28:59.564Z,99.69
2022-12-20T04:31:26.049Z,99.39
2022-12-20T04:33:53.207Z,99.09
2022-12-20T04:36:20.264Z,99.01
2022-12-20T04:38:46.704Z,99.07
2022-12-20T04:41:22.207Z,99.02
2022-12-20T04:43:54.409Z,98.68
2022-12-20T04:46:22.232Z,98.89
2022-12-20T04:48:58.378Z,98.86
2022-12-20T04:51:27.169Z,99.03
2022-12-20T04:53:54.021Z,99.51
2022-12-20T04:56:28.891Z,99.86
2022-12-20T04:58:57.535Z,100.00
2022-12-20T05:01:24.881Z,100.00
2022-12-20T05:03:51.940Z,100.00
2022-12-20T05:06:18.927Z,100.00
2022-12-20T05:08:45.482Z,100.00
2022-12-20T05:11:12.430Z,100.00
2022-12-20T05:13:39.250Z,100.00
2022-12-20T05:16:05.958Z,100.00
2022-12-20T05:18:32.688Z,100.00
2022-12-20T05:21:19.227Z,100.00
2022-12-20T05:24:05.199Z,100.00
2022-12-20T05:26:34.444Z,100.00
2022-12-20T05:29:00.916Z,100.00
2022-12-20T05:31:27.853Z,100.00
2022-12-20T05:33:54.675Z,100.00
2022-12-20T05:36:21.411Z,100.00
2022-12-20T05:38:48.967Z,100.00
2022-12-20T05:41:15.917Z,100.00
2022-12-20T05:43:42.363Z,100.00
2022-12-20T05:46:10.989Z,100.00
2022-12-20T05:48:37.724Z,100.00
2022-12-20T05:51:04.612Z,100.00
2022-12-20T05:53:31.196Z,100.00
2022-12-20T05:55:57.944Z,100.00
2022-12-20T05:58:24.468Z,100.00
2022-12-20T06:00:50.940Z,100.00
2022-12-20T06:03:17.577Z,100.00
2022-12-20T06:05:45.112Z,100.00
2022-12-20T06:08:12.387Z,100.00
2022-12-20T06:10:40.581Z,100.00
2022-12-20T06:13:07.774Z,100.00
2022-12-20T06:15:34.358Z,100.00
2022-12-20T06:18:00.891Z,100.00
2022-12-20T06:20:28.587Z,100.00
2022-12-20T06:22:55.032Z,100.00
2022-12-20T06:25:21.510Z,100.00
2022-12-20T06:27:48.011Z,100.00
2022-12-20T06:30:15.086Z,100.00
2022-12-20T06:32:41.644Z,100.00
2022-12-20T06:35:08.667Z,100.00
2022-12-20T06:37:36.267Z,100.00
2022-12-20T06:40:04.482Z,100.00
2022-12-20T06:42:31.113Z,100.00
2022-12-20T06:44:57.548Z,99.83
2022-12-20T06:47:24.082Z,99.03
2022-12-20T06:49:50.544Z,99.08
2022-12-20T06:52:16.951Z,98.29
2022-12-20T06:54:43.431Z,97.41
2022-12-20T06:57:09.911Z,97.75
2022-12-20T06:59:36.391Z,97.42
2022-12-20T07:02:03.052Z,97.18
2022-12-20T07:04:29.646Z,97.59
2022-12-20T07:06:57.229Z,96.81
2022-12-20T07:09:23.977Z,96.50
2022-12-20T07:11:50.517Z,94.84
2022-12-20T07:14:16.969Z,95.92
2022-12-20T07:16:43.929Z,96.46
2022-12-20T07:19:12.249Z,96.13
2022-12-20T07:21:38.801Z,95.95
2022-12-20T07:24:05.978Z,95.27
2022-12-20T07:26:32.571Z,95.43
2022-12-20T07:28:59.042Z,94.98
2022-12-20T07:31:25.523Z,94.57
2022-12-20T07:33:52.775Z,94.04
2022-12-20T07:36:19.315Z,93.91
2022-12-20T07:38:45.846Z,93.86
2022-12-20T07:41:15.203Z,93.58
2022-12-20T07:43:42.788Z,93.30
2022-12-20T07:46:11.919Z,92.98
2022-12-20T07:48:38.572Z,92.20
2022-12-20T07:51:09.788Z,91.79
2022-12-20T07:53:42.496Z,92.17
2022-12-20T07:56:10.580Z,92.12
2022-12-20T07:58:39.553Z,92.76
2022-12-20T08:01:07.455Z,92.07
2022-12-20T08:03:44.551Z,92.00
2022-12-20T08:06:12.380Z,92.19
2022-12-20T08:08:44.090Z,91.97
2022-12-20T08:11:11.664Z,92.18
2022-12-20T08:13:45.647Z,92.09
2022-12-20T08:16:13.031Z,92.21
2022-12-20T08:18:39.541Z,91.55
2022-12-20T08:21:06.029Z,92.16
2022-12-20T08:23:32.550Z,92.12
2022-12-20T08:26:01.661Z,91.71
2022-12-20T08:28:28.185Z,91.67
2022-12-20T08:31:04.028Z,91.14
2022-12-20T08:33:34.909Z,90.63
2022-12-20T08:36:04.331Z,90.96
2022-12-20T08:38:31.253Z,91.05
2022-12-20T08:41:10.897Z,90.78
2022-12-20T08:43:38.391Z,91.15
2022-12-20T08:46:05.636Z,90.70
2022-12-20T08:48:32.489Z,91.66
2022-12-20T08:51:01.403Z,91.99
2022-12-20T08:53:29.556Z,93.02
2022-12-20T08:56:17.543Z,93.74
2022-12-20T08:58:45.088Z,94.56
2022-12-20T09:01:14.937Z,94.98
2022-12-20T09:03:42.437Z,95.38
2022-12-20T09:06:11.873Z,95.88
2022-12-20T09:08:39.612Z,96.01
2022-12-20T09:11:14.078Z,96.06
2022-12-20T09:13:44.463Z,96.65
2022-12-20T09:16:13.411Z,96.59
2022-12-20T09:18:39.968Z,97.41
2022-12-20T09:21:07.818Z,97.98
2022-12-20T09:23:35.741Z,98.84
2022-12-20T09:26:08.259Z,100.00
2022-12-20T09:28:35.485Z,100.00
2022-12-20T09:31:04.567Z,100.00
2022-12-20T09:33:32.499Z,100.00
2022-12-20T09:35:59.820Z,100.00
2022-12-20T09:38:27.005Z,100.00
2022-12-20T09:40:56.269Z,100.00
2022-12-20T09:43:24.105Z,100.00
2022-12-20T09:45:59.713Z,100.00
2022-12-20T09:48:31.634Z,100.00
2022-12-20T09:51:09.951Z,100.00
2022-12-20T09:53:57.174Z,100.00
2022-12-20T09:56:30.253Z,100.00
2022-12-20T09:58:56.619Z,100.00
2022-12-20T10:01:27.744Z,100.00
2022-12-20T10:03:58.667Z,100.00
2022-12-20T10:06:47.403Z,100.00
2022-12-20T10:09:33.408Z,100.00
2022-12-20T10:12:28.549Z,100.00
2022-12-20T10:15:19.727Z,100.00
2022-12-20T10:18:04.117Z,100.00
2022-12-20T10:21:05.023Z,100.00
2022-12-20T10:23:42.515Z,100.00
2022-12-20T10:26:11.320Z,100.00
2022-12-20T10:28:38.638Z,100.00
2022-12-20T10:31:13.685Z,100.00
2022-12-20T10:33:41.165Z,100.00
2022-12-20T10:36:40.198Z,100.00
2022-12-20T10:39:09.161Z,100.00
2022-12-20T10:41:42.726Z,100.00
2022-12-20T10:44:15.558Z,100.00
2022-12-20T10:46:48.716Z,100.00
2022-12-20T10:49:32.976Z,100.00
2022-12-20T10:52:09.825Z,100.00
2022-12-20T10:54:39.027Z,100.00
2022-12-20T10:57:18.909Z,100.00
2022-12-20T11:00:00.590Z,100.00
2022-12-20T11:02:42.152Z,100.00
2022-12-20T11:05:09.864Z,100.00
2022-12-20T11:07:37.879Z,100.00
2022-12-20T11:10:21.194Z,100.00
2022-12-20T11:12:59.522Z,100.00
2022-12-20T11:15:34.692Z,100.00
2022-12-20T11:18:43.105Z,100.00
2022-12-20T11:21:32.127Z,100.00
2022-12-20T11:24:16.808Z,100.00
2022-12-20T11:27:01.768Z,100.00
2022-12-20T11:29:37.107Z,100.00
2022-12-20T11:32:36.732Z,100.00
2022-12-20T11:35:46.287Z,100.00
2022-12-20T11:38:25.125Z,100.00
2022-12-20T11:41:02.992Z,100.00
2022-12-20T11:44:15.901Z,100.00
2022-12-20T11:46:57.690Z,100.00
2022-12-20T11:49:43.849Z,100.00
2022-12-20T11:52:36.728Z,100.00
2022-12-20T11:55:27.341Z,100.00
2022-12-20T11:58:20.384Z,100.00
2022-12-20T12:00:55.239Z,100.00
2022-12-20T12:03:26.854Z,100.00
2022-12-20T12:06:10.422Z,100.00
2022-12-20T12:09:06.003Z,100.00
2022-12-20T12:14:46.758Z,100.00
2022-12-20T12:17:38.216Z,100.00
2022-12-20T12:20:18.184Z,100.00
2022-12-20T12:22:46.565Z,100.00
2022-12-20T12:25:17.869Z,100.00
2022-12-20T12:27:44.820Z,100.00
2022-12-20T12:30:16.059Z,100.00
2022-12-20T12:33:07.405Z,100.00
2022-12-20T12:36:00.682Z,100.00
2022-12-20T12:38:45.933Z,100.00
2022-12-20T12:41:50.743Z,100.00
2022-12-20T12:44:20.326Z,100.00
2022-12-20T12:46:54.861Z,100.00
2022-12-20T12:49:25.499Z,100.00
2022-12-20T12:51:59.461Z,100.00
2022-12-20T12:54:36.838Z,100.00
2022-12-20T12:57:19.144Z,100.00
2022-12-20T12:59:48.857Z,100.00
2022-12-20T13:02:15.845Z,100.00
2022-12-20T13:04:59.522Z,100.00
2022-12-20T13:07:28.885Z,100.00
2022-12-20T13:09:55.351Z,100.00
2022-12-20T13:12:37.612Z,100.00
2022-12-20T13:15:22.610Z,100.00
2022-12-20T13:17:59.440Z,100.00
2022-12-20T13:20:30.573Z,100.00
2022-12-20T13:23:17.405Z,100.00
2022-12-20T13:25:51.683Z,100.00
2022-12-20T13:28:24.308Z,100.00
2022-12-20T13:30:53.768Z,100.00
2022-12-20T13:33:23.474Z,100.00
2022-12-20T13:35:57.637Z,100.00
2022-12-20T13:38:45.277Z,100.00
2022-12-20T13:41:39.444Z,100.00
2022-12-20T13:44:24.376Z,100.00
2022-12-20T13:47:12.729Z,100.00
2022-12-20T13:49:42.336Z,100.00
2022-12-20T13:52:11.705Z,100.00
2022-12-20T13:54:44.594Z,100.00
2022-12-20T13:57:24.092Z,100.00
2022-12-20T14:00:00.011Z,100.00
2022-12-20T14:02:36.343Z,100.00
2022-12-20T14:05:14.864Z,100.00
2022-12-20T14:07:42.778Z,100.00
2022-12-20T14:10:22.603Z,100.00
2022-12-20T14:12:53.662Z,100.00
2022-12-20T14:15:32.532Z,100.00
2022-12-20T14:18:06.963Z,100.00
2022-12-20T14:20:37.686Z,100.00
2022-12-20T14:23:10.268Z,100.00
2022-12-20T14:26:03.544Z,100.00
2022-12-20T14:28:44.411Z,100.00
2022-12-20T14:31:44.411Z,100.00
2022-12-20T14:34:10.797Z,100.00
2022-12-20T14:36:38.967Z,100.00
2022-12-20T14:39:35.078Z,100.00
2022-12-20T14:42:12.349Z,100.00
2022-12-20T14:44:39.667Z,100.00
2022-12-20T14:47:28.318Z,100.00
2022-12-20T14:50:00.226Z,100.00
2022-12-20T14:52:34.273Z,100.00
2022-12-20T14:55:25.128Z,100.00
2022-12-20T14:57:54.271Z,100.00
2022-12-20T15:00:27.980Z,100.00
2022-12-20T15:03:00.895Z,100.00
2022-12-20T15:05:33.999Z,100.00
2022-12-20T15:08:23.589Z,100.00
2022-12-20T15:10:56.263Z,100.00
2022-12-20T15:13:28.060Z,100.00
2022-12-20T15:15:55.377Z,100.00
2022-12-20T15:18:22.556Z,100.00
2022-12-20T15:20:59.419Z,100.00
2022-12-20T15:23:25.928Z,100.00
2022-12-20T15:25:52.440Z,100.00
2022-12-20T15:28:22.166Z,100.00
2022-12-20T15:30:50.552Z,100.00
2022-12-20T15:33:19.234Z,100.00
2022-12-20T15:35:46.511Z,100.00
2022-12-20T15:38:25.396Z,100.00
2022-12-20T15:41:07.895Z,100.00
2022-12-20T15:43:39.006Z,100.00
2022-12-20T15:46:06.150Z,100.00
2022-12-20T15:48:32.642Z,100.00
2022-12-20T15:50:59.936Z,100.00
2022-12-20T15:53:34.056Z,100.00
2022-12-20T15:56:00.903Z,100.00
2022-12-20T15:58:27.533Z,100.00
2022-12-20T16:00:58.585Z,100.00
2022-12-20T16:03:30.200Z,100.00
2022-12-20T16:05:56.883Z,100.00
2022-12-20T16:08:23.504Z,100.00
2022-12-20T16:10:52.012Z,100.00
2022-12-20T16:13:23.625Z,100.00
2022-12-20T16:15:51.120Z,100.00
2022-12-20T16:18:17.651Z,100.00
2022-12-20T16:20:44.613Z,100.00
2022-12-20T16:23:29.197Z,100.00
2022-12-20T16:25:55.667Z,100.00
2022-12-20T16:28:22.094Z,100.00
2022-12-20T16:30:53.267Z,100.00
2022-12-20T16:33:21.151Z,100.00
2022-12-20T16:35:48.031Z,100.00
2022-12-20T16:38:14.558Z,100.00
2022-12-20T16:40:41.065Z,100.00
2022-12-20T16:43:14.015Z,100.00
2022-12-20T16:45:40.483Z,100.00
2022-12-20T16:48:08.044Z,100.00
2022-12-20T16:50:41.359Z,100.00
2022-12-20T16:53:12.432Z,100.00
2022-12-20T16:55:40.133Z,100.00
2022-12-20T16:58:06.816Z,100.00
2022-12-20T17:00:33.305Z,100.00
2022-12-20T17:02:59.931Z,100.00
2022-12-20T17:05:30.321Z,100.00
2022-12-20T17:07:56.919Z,100.00
2022-12-20T17:10:24.382Z,100.00
2022-12-20T17:12:51.542Z,100.00
2022-12-20T17:15:27.718Z,100.00
2022-12-20T17:17:55.146Z,100.00
2022-12-20T17:20:23.591Z,100.00
2022-12-20T17:25:37.082Z,100.00
2022-12-20T17:28:03.688Z,100.00
2022-12-20T17:30:30.163Z,100.00
2022-12-20T17:32:56.645Z,100.00
2022-12-20T17:35:32.650Z,100.00
2022-12-20T17:38:00.471Z,100.00
2022-12-20T17:40:28.528Z,100.00
2022-12-20T17:42:55.510Z,100.00
2022-12-20T17:45:29.435Z,100.00
2022-12-20T17:47:57.095Z,100.00
2022-12-20T17:50:24.490Z,100.00
2022-12-20T17:52:52.229Z,100.00
2022-12-20T17:55:25.899Z,100.00
2022-12-20T17:57:53.688Z,100.00
2022-12-20T18:00:23.453Z,100.00
2022-12-20T18:02:50.195Z,100.00
2022-12-20T18:05:16.887Z,100.00
2022-12-20T18:07:43.865Z,100.00
2022-12-20T18:10:10.797Z,100.00
2022-12-20T18:12:38.785Z,100.00
2022-12-20T18:15:07.354Z,100.00
2022-12-20T18:17:33.886Z,100.00
2022-12-20T18:20:00.330Z,100.00
2022-12-20T18:22:26.823Z,100.00
2022-12-20T18:24:53.282Z,100.00
2022-12-20T18:27:23.714Z,100.00
2022-12-20T18:29:53.388Z,100.00
2022-12-20T18:32:19.985Z,100.00
2022-12-20T18:34:46.477Z,100.00
2022-12-20T18:37:12.923Z,100.00
2022-12-20T18:39:39.377Z,100.00
2022-12-20T18:42:05.913Z,100.00
2022-12-20T18:44:35.681Z,100.00
2022-12-20T18:47:03.165Z,100.00
2022-12-20T18:49:30.131Z,100.00
2022-12-20T18:51:58.825Z,100.00
2022-12-20T18:54:25.590Z,100.00
2022-12-20T18:56:52.295Z,100.00
2022-12-20T18:59:18.823Z,100.00
2022-12-20T19:01:45.437Z,100.00
2022-12-20T19:04:12.213Z,100.00
2022-12-20T19:06:39.053Z,100.00
2022-12-20T19:09:11.440Z,100.00
2022-12-20T19:11:38.253Z,100.00
2022-12-20T19:14:04.890Z,100.00
2022-12-20T19:16:32.970Z,100.00
2022-12-20T19:19:02.184Z,100.00
2022-12-20T19:21:31.017Z,100.00
2022-12-20T19:24:00.064Z,100.00
2022-12-20T19:26:28.263Z,100.00
2022-12-20T19:28:55.198Z,100.00
2022-12-20T19:31:27.366Z,100.00
2022-12-20T19:33:56.530Z,100.00
2022-12-20T19:36:28.935Z,100.00
2022-12-20T19:38:58.931Z,100.00
2022-12-20T19:41:28.781Z,100.00
2022-12-20T19:43:56.497Z,100.00
2022-12-20T19:46:28.849Z,100.00
2022-12-20T19:48:57.612Z,100.00
2022-12-20T19:51:25.683Z,100.00
2022-12-20T19:53:53.730Z,100.00
2022-12-20T19:56:25.592Z,100.00
2022-12-20T19:58:53.151Z,100.00
2022-12-20T20:01:22.991Z,100.00
2022-12-20T20:03:49.903Z,100.00
2022-12-20T20:06:16.579Z,100.00
2022-12-20T20:08:43.171Z,100.00
2022-12-20T20:11:10.655Z,100.00
2022-12-20T20:13:38.551Z,100.00
2022-12-20T20:16:06.063Z,100.00
2022-12-20T20:18:35.200Z,100.00
2022-12-20T20:21:09.714Z,100.00
2022-12-20T20:23:37.287Z,100.00
2022-12-20T20:26:08.389Z,100.00
2022-12-20T20:28:41.922Z,100.00
2022-12-20T20:31:13.572Z,100.00
2022-12-20T20:33:40.382Z,100.00
2022-12-20T20:36:07.482Z,100.00
2022-12-20T20:38:34.933Z,100.00
2022-12-20T20:41:01.805Z,100.00
2022-12-20T20:43:29.767Z,100.00
2022-12-20T20:45:56.997Z,100.00
2022-12-20T20:48:23.754Z,100.00
2022-12-20T20:50:50.506Z,100.00
2022-12-20T20:53:16.967Z,100.00
2022-12-20T20:55:43.508Z,100.00
2022-12-20T20:58:10.201Z,100.00
2022-12-20T21:00:36.882Z,100.00
2022-12-20T21:03:03.909Z,100.00
2022-12-20T21:08:18.239Z,100.00
2022-12-20T21:10:44.859Z,100.00
2022-12-20T21:13:12.062Z,100.00
2022-12-20T21:15:40.715Z,100.00
2022-12-20T21:18:07.267Z,100.00
2022-12-20T21:20:33.741Z,100.00
2022-12-20T21:23:01.485Z,100.00
2022-12-20T21:25:28.276Z,100.00
2022-12-20T21:27:56.111Z,100.00
2022-12-20T21:30:23.034Z,100.00
2022-12-20T21:32:50.413Z,100.00
2022-12-20T21:35:16.980Z,100.00
2022-12-20T21:37:43.477Z,100.00
2022-12-20T21:40:10.560Z,100.00
2022-12-20T21:42:37.704Z,100.00
2022-12-20T21:45:04.577Z,100.00
2022-12-20T21:47:31.064Z,100.00
2022-12-20T21:49:57.509Z,100.00
2022-12-20T21:52:23.989Z,100.00
2022-12-20T21:54:50.446Z,100.00
2022-12-20T21:57:16.880Z,100.00
2022-12-20T21:59:43.347Z,100.00
2022-12-20T22:02:12.484Z,100.00
2022-12-20T22:04:39.296Z,100.00
2022-12-20T22:07:05.900Z,100.00
2022-12-20T22:09:32.368Z,100.00
2022-12-20T22:11:58.839Z,100.00
2022-12-20T22:14:25.412Z,100.00
2022-12-20T22:16:51.910Z,100.00
2022-12-20T22:19:18.593Z,100.00
2022-12-20T22:21:45.112Z,100.00
2022-12-20T22:24:11.648Z,100.00
2022-12-20T22:26:40.978Z,100.00
2022-12-20T22:29:08.823Z,100.00
2022-12-20T22:31:36.478Z,100.00
2022-12-20T22:34:03.176Z,100.00
2022-12-20T22:36:29.937Z,100.00
2022-12-20T22:38:56.995Z,100.00
2022-12-20T22:41:32.537Z,100.00
2022-12-20T22:43:59.662Z,100.00
2022-12-20T22:46:29.087Z,100.00
2022-12-20T22:48:56.377Z,100.00
2022-12-20T22:51:25.801Z,100.00
2022-12-20T22:53:52.495Z,100.00
2022-12-20T22:56:21.067Z,100.00
2022-12-20T22:58:47.900Z,100.00
2022-12-20T23:01:16.179Z,100.00
2022-12-20T23:03:43.235Z,100.00
2022-12-20T23:06:13.267Z,100.00
2022-12-20T23:08:40.637Z,100.00
2022-12-20T23:11:36.674Z,100.00
2022-12-20T23:14:22.502Z,100.00
2022-12-20T23:16:49.428Z,100.00
2022-12-20T23:19:15.971Z,100.00
2022-12-20T23:22:00.754Z,100.00
2022-12-20T23:24:27.271Z,100.00
2022-12-20T23:26:53.740Z,100.00
2022-12-20T23:29:20.235Z,100.00
2022-12-20T23:31:46.920Z,100.00
2022-12-20T23:34:13.513Z,100.00
2022-12-20T23:36:40.851Z,100.00
2022-12-20T23:39:07.903Z,100.00
2022-12-20T23:41:34.585Z,100.00
2022-12-20T23:44:03.939Z,100.00
2022-12-20T23:46:30.538Z,100.00
2022-12-20T23:48:57.143Z,100.00
2022-12-20T23:51:23.646Z,100.00
2022-12-20T23:53:53.336Z,100.00
2022-12-20T23:56:21.508Z,100.00
2022-12-20T23:58:54.192Z,100.00
